createdAt,value
2018-06-15T00:02:22.457Z,22.80
2018-06-15T00:04:49.773Z,21.97
2018-06-15T00:07:17.082Z,22.50
2018-06-15T00:09:44.361Z,23.37
2018-06-15T00:12:11.644Z,24.07
2018-06-15T00:14:38.947Z,22.03
2018-06-15T00:17:06.245Z,23.87
2018-06-15T00:19:33.533Z,22.50
2018-06-15T00:22:00.801Z,23.93
2018-06-15T00:24:28.175Z,22.13
2018-06-15T00:26:55.448Z,22.63
2018-06-15T00:29:22.800Z,21.93
2018-06-15T00:31:50.052Z,23.97
2018-06-15T00:34:17.309Z,23.30
2018-06-15T00:36:44.581Z,23.10
2018-06-15T00:39:12.873Z,23.03
2018-06-15T00:41:41.160Z,22.40
2018-06-15T00:44:08.721Z,23.80
2018-06-15T00:46:36.013Z,24.67
2018-06-15T00:49:03.437Z,24.30
2018-06-15T00:51:30.825Z,24.20
2018-06-15T00:53:58.282Z,25.93
2018-06-15T00:56:25.542Z,23.90
2018-06-15T00:58:52.884Z,21.73
2018-06-15T01:01:20.177Z,24.07
2018-06-15T01:03:47.469Z,25.20
2018-06-15T01:06:14.749Z,23.97
2018-06-15T01:08:42.018Z,25.13
2018-06-15T01:11:09.316Z,23.37
2018-06-15T01:13:36.776Z,21.10
2018-06-15T01:16:04.253Z,22.00
2018-06-15T01:18:31.514Z,22.43
2018-06-15T01:20:58.795Z,22.47
2018-06-15T01:23:26.080Z,23.50
2018-06-15T01:25:53.345Z,22.97
2018-06-15T01:28:20.626Z,25.13
2018-06-15T01:30:47.908Z,22.83
2018-06-15T01:33:15.169Z,24.53
2018-06-15T01:35:42.455Z,23.97
2018-06-15T01:38:09.708Z,24.63
2018-06-15T01:40:36.975Z,23.40
2018-06-15T01:43:04.244Z,24.43
2018-06-15T01:45:31.525Z,23.23
2018-06-15T01:47:58.781Z,27.00
2018-06-15T01:50:26.076Z,27.60
2018-06-15T01:52:53.343Z,24.70
2018-06-15T01:55:20.606Z,25.50
2018-06-15T01:57:47.904Z,24.27
2018-06-15T02:00:15.173Z,24.27
2018-06-15T02:02:42.442Z,25.00
2018-06-15T02:05:09.704Z,27.07
2018-06-15T02:07:36.982Z,26.53
2018-06-15T02:10:04.249Z,27.27
2018-06-15T02:12:31.514Z,24.93
2018-06-15T02:14:58.821Z,27.30
2018-06-15T02:17:26.103Z,30.00
2018-06-15T02:19:53.395Z,26.77
2018-06-15T02:22:20.661Z,25.53
2018-06-15T02:24:47.925Z,25.33
2018-06-15T02:27:15.193Z,25.40
2018-06-15T02:29:42.484Z,26.50
2018-06-15T02:32:09.744Z,26.00
2018-06-15T02:34:37.033Z,25.67
2018-06-15T02:37:04.314Z,26.43
2018-06-15T02:39:31.594Z,24.93
2018-06-15T02:41:58.872Z,23.73
2018-06-15T02:44:26.137Z,26.60
2018-06-15T02:46:53.601Z,26.47
2018-06-15T02:49:20.857Z,24.90
2018-06-15T02:51:48.141Z,26.33
2018-06-15T02:54:15.404Z,25.43
2018-06-15T02:56:42.693Z,24.33
2018-06-15T02:59:09.981Z,26.33
2018-06-15T03:01:37.269Z,28.27
2018-06-15T03:04:04.533Z,27.40
2018-06-15T03:06:31.797Z,26.60
2018-06-15T03:08:59.060Z,25.53
2018-06-15T03:11:26.334Z,24.83
2018-06-15T03:13:53.606Z,26.80
2018-06-15T03:16:20.905Z,27.50
2018-06-15T03:18:48.181Z,24.97
2018-06-15T03:21:15.446Z,26.40
2018-06-15T03:23:42.843Z,26.10
2018-06-15T03:26:10.114Z,24.30
2018-06-15T03:28:37.404Z,26.30
2018-06-15T03:31:04.685Z,23.50
2018-06-15T03:33:31.977Z,27.00
2018-06-15T03:35:59.237Z,25.53
2018-06-15T03:38:26.500Z,25.57
2018-06-15T03:40:53.801Z,26.90
2018-06-15T03:43:21.072Z,27.30
2018-06-15T03:45:48.577Z,27.00
2018-06-15T03:48:16.081Z,26.27
2018-06-15T03:50:43.353Z,27.57
2018-06-15T03:53:10.623Z,24.43
2018-06-15T03:55:37.901Z,23.27
2018-06-15T03:58:05.197Z,26.07
2018-06-15T04:00:32.469Z,26.23
2018-06-15T04:02:59.745Z,23.50
2018-06-15T04:05:27.009Z,25.87
2018-06-15T04:07:54.273Z,24.43
2018-06-15T04:10:21.607Z,23.90
2018-06-15T04:12:49.072Z,25.63
2018-06-15T04:15:16.336Z,24.03
2018-06-15T04:17:43.611Z,23.93
2018-06-15T04:20:10.934Z,23.50
2018-06-15T04:22:38.230Z,21.73
2018-06-15T04:25:05.503Z,26.30
2018-06-15T04:27:32.765Z,22.47
2018-06-15T04:30:00.060Z,22.13
2018-06-15T04:32:27.321Z,21.63
2018-06-15T04:34:54.588Z,22.67
2018-06-15T04:37:21.926Z,22.27
2018-06-15T04:39:49.205Z,23.30
2018-06-15T04:42:16.456Z,21.30
2018-06-15T04:44:43.724Z,19.93
2018-06-15T04:47:11.021Z,21.07
2018-06-15T04:49:38.918Z,19.40
2018-06-15T04:52:06.245Z,18.87
2018-06-15T04:54:33.625Z,18.00
2018-06-15T04:57:00.900Z,17.57
2018-06-15T04:59:28.470Z,18.80
2018-06-15T05:01:55.781Z,17.17
2018-06-15T05:04:23.093Z,17.80
2018-06-15T05:06:50.470Z,17.03
2018-06-15T05:09:17.798Z,15.83
2018-06-15T05:11:45.075Z,15.97
2018-06-15T05:14:12.348Z,14.37
2018-06-15T05:16:39.648Z,15.23
2018-06-15T05:19:06.934Z,13.17
2018-06-15T05:21:34.225Z,13.70
2018-06-15T05:24:01.523Z,12.37
2018-06-15T05:26:28.785Z,12.90
2018-06-15T05:28:56.364Z,13.07
2018-06-15T05:31:23.638Z,13.93
2018-06-15T05:33:51.095Z,13.40
2018-06-15T05:36:18.401Z,14.17
2018-06-15T05:38:45.660Z,13.23
2018-06-15T05:41:12.938Z,11.90
2018-06-15T05:43:40.200Z,10.67
2018-06-15T05:46:07.581Z,10.10
2018-06-15T05:48:35.041Z,9.27
2018-06-15T05:51:02.549Z,9.90
2018-06-15T05:53:29.829Z,9.90
2018-06-15T05:55:57.081Z,10.40
2018-06-15T05:58:24.342Z,8.47
2018-06-15T06:00:51.644Z,9.17
2018-06-15T06:03:19.410Z,8.20
2018-06-15T06:05:47.183Z,8.60
2018-06-15T06:08:17.301Z,9.10
2018-06-15T06:10:44.784Z,9.60
2018-06-15T06:13:12.058Z,9.03
2018-06-15T06:15:39.329Z,9.73
2018-06-15T06:18:06.741Z,8.07
2018-06-15T06:20:34.029Z,8.73
2018-06-15T06:23:01.361Z,8.90
2018-06-15T06:25:28.648Z,7.60
2018-06-15T06:27:55.973Z,6.37
2018-06-15T06:30:23.238Z,5.93
2018-06-15T06:32:50.513Z,5.50
2018-06-15T06:35:17.842Z,6.87
2018-06-15T06:37:45.106Z,4.60
2018-06-15T06:40:12.445Z,5.87
2018-06-15T06:42:39.799Z,5.40
2018-06-15T06:45:07.082Z,5.43
2018-06-15T06:47:34.345Z,5.10
2018-06-15T06:50:01.630Z,5.23
2018-06-15T06:52:29.122Z,6.30
2018-06-15T06:54:56.402Z,4.30
2018-06-15T06:57:23.692Z,4.50
2018-06-15T06:59:50.966Z,5.23
2018-06-15T07:02:18.233Z,4.40
2018-06-15T07:04:45.497Z,4.50
2018-06-15T07:07:12.765Z,3.77
2018-06-15T07:09:40.053Z,4.20
2018-06-15T07:12:07.318Z,4.43
2018-06-15T07:14:34.593Z,4.47
2018-06-15T07:17:01.857Z,4.20
2018-06-15T07:19:29.130Z,4.60
2018-06-15T07:21:56.432Z,4.57
2018-06-15T07:24:23.689Z,4.87
2018-06-15T07:26:50.956Z,3.93
2018-06-15T07:29:18.232Z,4.43
2018-06-15T07:31:45.685Z,4.80
2018-06-15T07:34:12.947Z,4.90
2018-06-15T07:36:40.333Z,4.70
2018-06-15T07:39:08.116Z,3.80
2018-06-15T07:41:35.405Z,4.70
2018-06-15T07:44:02.665Z,4.07
2018-06-15T07:46:29.931Z,3.77
2018-06-15T07:48:57.828Z,4.07
2018-06-15T07:51:25.206Z,3.50
2018-06-15T07:53:52.769Z,4.83
2018-06-15T07:56:20.101Z,3.43
2018-06-15T07:58:47.384Z,3.23
2018-06-15T08:01:14.661Z,3.10
2018-06-15T08:03:46.541Z,2.73
2018-06-15T08:06:13.793Z,3.10
2018-06-15T08:08:41.069Z,3.90
2018-06-15T08:11:08.341Z,2.77
2018-06-15T08:13:35.627Z,2.80
2018-06-15T08:16:02.947Z,2.90
2018-06-15T08:18:30.222Z,2.73
2018-06-15T08:20:57.519Z,2.93
2018-06-15T08:23:24.819Z,3.10
2018-06-15T08:25:52.282Z,2.43
2018-06-15T08:28:19.561Z,2.80
2018-06-15T08:30:46.837Z,2.83
2018-06-15T08:33:14.125Z,3.03
2018-06-15T08:35:41.402Z,3.07
2018-06-15T08:38:08.700Z,2.80
2018-06-15T08:40:35.970Z,2.63
2018-06-15T08:43:03.250Z,3.40
2018-06-15T08:45:30.545Z,2.90
2018-06-15T08:47:57.847Z,3.00
2018-06-15T08:50:25.121Z,3.07
2018-06-15T08:52:52.397Z,2.40
2018-06-15T08:55:19.904Z,2.53
2018-06-15T08:57:47.218Z,3.70
2018-06-15T09:00:14.517Z,2.80
2018-06-15T09:02:41.785Z,2.90
2018-06-15T09:05:09.073Z,2.17
2018-06-15T09:07:36.421Z,3.00
2018-06-15T09:10:03.718Z,3.00
2018-06-15T09:12:30.993Z,3.10
2018-06-15T09:14:58.516Z,2.77
2018-06-15T09:17:25.785Z,2.80
2018-06-15T09:19:53.053Z,2.10
2018-06-15T09:22:20.377Z,1.73
2018-06-15T09:24:47.658Z,3.30
2018-06-15T09:27:14.913Z,2.60
2018-06-15T09:29:42.189Z,3.50
2018-06-15T09:32:09.476Z,2.57
2018-06-15T09:34:36.749Z,3.13
2018-06-15T09:37:04.035Z,2.30
2018-06-15T09:39:31.329Z,2.30
2018-06-15T09:41:58.642Z,3.40
2018-06-15T09:44:25.941Z,2.60
2018-06-15T09:46:53.213Z,2.30
2018-06-15T09:49:20.483Z,2.10
2018-06-15T09:51:47.754Z,2.53
2018-06-15T09:54:15.082Z,2.17
2018-06-15T09:56:42.617Z,3.00
2018-06-15T09:59:09.892Z,2.83
2018-06-15T10:01:37.169Z,2.70
2018-06-15T10:04:04.445Z,2.80
2018-06-15T10:06:31.717Z,2.77
2018-06-15T10:08:58.986Z,2.43
2018-06-15T10:11:26.252Z,2.97
2018-06-15T10:13:53.561Z,2.07
2018-06-15T10:16:20.842Z,4.47
2018-06-15T10:18:48.112Z,2.50
2018-06-15T10:21:15.364Z,2.27
2018-06-15T10:23:42.624Z,2.10
2018-06-15T10:26:09.898Z,3.30
2018-06-15T10:28:37.161Z,2.50
2018-06-15T10:31:04.457Z,2.60
2018-06-15T10:33:31.717Z,2.90
2018-06-15T10:35:59.046Z,2.30
2018-06-15T10:38:26.335Z,2.60
2018-06-15T10:40:53.620Z,2.80
2018-06-15T10:43:20.932Z,2.70
2018-06-15T10:45:48.222Z,3.60
2018-06-15T10:48:15.524Z,2.13
2018-06-15T10:50:42.887Z,2.70
2018-06-15T10:53:10.165Z,2.27
2018-06-15T10:55:37.449Z,2.73
2018-06-15T10:58:04.972Z,2.47
2018-06-15T11:00:32.245Z,2.43
2018-06-15T11:02:59.633Z,1.80
2018-06-15T11:05:26.913Z,2.30
2018-06-15T11:07:54.245Z,2.40
2018-06-15T11:10:21.529Z,2.10
2018-06-15T11:12:48.824Z,3.23
2018-06-15T11:15:16.118Z,2.80
2018-06-15T11:17:43.385Z,2.50
2018-06-15T11:20:10.673Z,3.77
2018-06-15T11:22:37.964Z,2.77
2018-06-15T11:25:05.301Z,3.70
2018-06-15T11:27:32.597Z,3.20
2018-06-15T11:29:59.892Z,3.10
2018-06-15T11:32:27.297Z,2.90
2018-06-15T11:34:54.581Z,6.47
2018-06-15T11:37:21.849Z,4.00
2018-06-15T11:39:49.131Z,2.60
2018-06-15T11:42:16.413Z,2.60
2018-06-15T11:44:43.720Z,2.37
2018-06-15T11:47:11.090Z,2.40
2018-06-15T11:49:38.364Z,2.33
2018-06-15T11:52:05.689Z,2.67
2018-06-15T11:54:32.960Z,2.60
2018-06-15T11:57:00.253Z,2.40
2018-06-15T11:59:27.729Z,2.43
2018-06-15T12:01:55.009Z,2.50
2018-06-15T12:04:22.283Z,2.60
2018-06-15T12:06:49.616Z,2.10
2018-06-15T12:09:16.920Z,2.17
2018-06-15T12:11:44.221Z,2.13
2018-06-15T12:14:11.481Z,2.00
2018-06-15T12:16:38.766Z,1.90
2018-06-15T12:19:06.065Z,2.00
2018-06-15T12:21:33.374Z,2.83
2018-06-15T12:24:00.649Z,2.37
2018-06-15T12:26:27.977Z,2.13
2018-06-15T12:28:55.243Z,2.00
2018-06-15T12:31:22.524Z,1.97
2018-06-15T12:33:49.823Z,2.53
2018-06-15T12:36:17.090Z,2.73
2018-06-15T12:38:44.389Z,2.30
2018-06-15T12:41:11.777Z,2.37
2018-06-15T12:43:39.068Z,2.50
2018-06-15T12:46:06.585Z,2.10
2018-06-15T12:48:33.989Z,2.33
2018-06-15T12:51:01.276Z,2.50
2018-06-15T12:53:28.772Z,2.30
2018-06-15T12:55:56.049Z,2.30
2018-06-15T12:58:23.309Z,2.97
2018-06-15T13:00:50.807Z,2.73
2018-06-15T13:03:18.081Z,2.80
2018-06-15T13:05:45.357Z,2.40
2018-06-15T13:08:12.634Z,3.20
2018-06-15T13:10:39.909Z,3.27
2018-06-15T13:13:07.184Z,2.43
2018-06-15T13:15:34.470Z,2.90
2018-06-15T13:18:04.127Z,3.90
2018-06-15T13:20:31.902Z,2.87
2018-06-15T13:22:59.180Z,2.40
2018-06-15T13:25:26.464Z,2.90
2018-06-15T13:27:53.742Z,2.43
2018-06-15T13:30:21.025Z,2.43
2018-06-15T13:32:48.366Z,4.93
2018-06-15T13:35:15.620Z,11.40
2018-06-15T13:37:42.945Z,7.30
2018-06-15T13:40:10.239Z,3.37
2018-06-15T13:42:37.526Z,2.83
2018-06-15T13:45:04.840Z,2.20
2018-06-15T13:47:32.089Z,3.17
2018-06-15T13:49:59.396Z,3.07
2018-06-15T13:52:26.672Z,2.40
2018-06-15T13:54:53.945Z,2.77
2018-06-15T13:57:21.477Z,2.77
2018-06-15T13:59:48.752Z,2.20
2018-06-15T14:02:16.253Z,2.80
2018-06-15T14:04:43.518Z,3.97
2018-06-15T14:07:10.807Z,3.07
2018-06-15T14:09:38.098Z,3.30
2018-06-15T14:12:05.373Z,6.30
2018-06-15T14:14:32.806Z,3.40
2018-06-15T14:17:00.082Z,3.10
2018-06-15T14:19:27.340Z,2.90
2018-06-15T14:21:54.627Z,2.87
2018-06-15T14:24:21.920Z,6.07
2018-06-15T14:26:49.199Z,4.50
2018-06-15T14:29:16.501Z,3.20
2018-06-15T14:31:43.775Z,2.40
2018-06-15T14:34:11.046Z,2.40
2018-06-15T14:36:38.345Z,2.27
2018-06-15T14:39:06.286Z,2.27
2018-06-15T14:41:33.580Z,2.53
2018-06-15T14:44:00.884Z,3.40
2018-06-15T14:46:28.157Z,3.30
2018-06-15T14:48:55.461Z,2.90
2018-06-15T14:51:22.777Z,2.50
2018-06-15T14:53:50.097Z,2.20
2018-06-15T14:56:17.401Z,8.43
2018-06-15T14:58:44.700Z,12.40
2018-06-15T15:01:12.023Z,6.40
2018-06-15T15:03:39.575Z,5.87
2018-06-15T15:06:06.949Z,20.00
2018-06-15T15:08:34.284Z,4.93
2018-06-15T15:11:01.697Z,2.30
2018-06-15T15:13:28.980Z,6.93
2018-06-15T15:15:56.322Z,5.67
2018-06-15T15:18:23.654Z,3.70
2018-06-15T15:20:50.952Z,14.57
2018-06-15T15:23:18.239Z,8.30
2018-06-15T15:25:45.532Z,3.33
2018-06-15T15:28:12.829Z,2.87
2018-06-15T15:30:40.128Z,35.17
2018-06-15T15:33:07.491Z,11.60
2018-06-15T15:35:34.768Z,4.50
2018-06-15T15:38:02.150Z,3.20
2018-06-15T15:40:29.492Z,3.43
2018-06-15T15:42:56.771Z,3.27
2018-06-15T15:45:24.073Z,2.90
2018-06-15T15:47:51.361Z,2.50
2018-06-15T15:50:18.702Z,2.00
2018-06-15T15:52:45.977Z,2.07
2018-06-15T15:55:13.266Z,2.37
2018-06-15T15:57:40.569Z,1.63
2018-06-15T16:00:07.890Z,2.07
2018-06-15T16:02:35.156Z,2.27
2018-06-15T16:05:02.753Z,2.90
2018-06-15T16:07:30.032Z,3.10
2018-06-15T16:09:57.301Z,2.10
2018-06-15T16:12:24.576Z,2.53
2018-06-15T16:14:51.913Z,3.57
2018-06-15T16:17:19.235Z,2.77
2018-06-15T16:19:46.540Z,3.43
2018-06-15T16:22:13.850Z,2.37
2018-06-15T16:24:41.209Z,3.00
2018-06-15T16:27:08.481Z,2.57
2018-06-15T16:29:35.766Z,2.27
2018-06-15T16:32:03.033Z,2.73
2018-06-15T16:34:30.356Z,2.40
2018-06-15T16:36:57.616Z,3.00
2018-06-15T16:39:24.880Z,2.20
2018-06-15T16:41:52.162Z,2.07
2018-06-15T16:44:19.437Z,3.90
2018-06-15T16:46:46.733Z,2.60
2018-06-15T16:49:14.022Z,2.77
2018-06-15T16:51:41.365Z,2.07
2018-06-15T16:54:08.716Z,2.40
2018-06-15T16:56:36.018Z,2.57
2018-06-15T16:59:03.301Z,2.67
2018-06-15T17:01:30.625Z,2.37
2018-06-15T17:03:57.934Z,2.20
2018-06-15T17:06:25.368Z,2.80
2018-06-15T17:08:52.653Z,2.07
2018-06-15T17:11:19.942Z,2.17
2018-06-15T17:13:47.313Z,2.50
2018-06-15T17:16:14.599Z,3.20
2018-06-15T17:18:41.881Z,2.70
2018-06-15T17:21:09.167Z,2.00
2018-06-15T17:23:36.519Z,2.30
2018-06-15T17:26:03.910Z,2.43
2018-06-15T17:28:31.204Z,1.77
2018-06-15T17:30:58.478Z,3.00
2018-06-15T17:33:25.768Z,2.33
2018-06-15T17:35:53.353Z,2.37
2018-06-15T17:38:20.633Z,2.70
2018-06-15T17:40:47.902Z,2.83
2018-06-15T17:43:15.193Z,2.67
2018-06-15T17:45:42.472Z,2.70
2018-06-15T17:48:09.785Z,2.93
2018-06-15T17:50:37.058Z,2.67
2018-06-15T17:53:04.544Z,2.47
2018-06-15T17:55:31.809Z,4.13
2018-06-15T17:57:59.106Z,2.60
2018-06-15T18:00:26.397Z,2.63
2018-06-15T18:02:53.737Z,2.43
2018-06-15T18:05:21.009Z,4.00
2018-06-15T18:07:48.485Z,5.03
2018-06-15T18:10:15.771Z,5.20
2018-06-15T18:12:43.049Z,4.03
2018-06-15T18:15:10.322Z,3.10
2018-06-15T18:17:37.642Z,3.07
2018-06-15T18:20:05.133Z,3.40
2018-06-15T18:22:32.426Z,2.60
2018-06-15T18:24:59.719Z,2.37
2018-06-15T18:27:27.053Z,2.60
2018-06-15T18:29:54.472Z,2.20
2018-06-15T18:32:21.728Z,1.83
2018-06-15T18:34:48.997Z,2.47
2018-06-15T18:37:16.268Z,2.77
2018-06-15T18:39:43.532Z,2.87
2018-06-15T18:42:10.873Z,2.03
2018-06-15T18:44:38.145Z,2.30
2018-06-15T18:47:05.444Z,2.47
2018-06-15T18:49:32.711Z,3.10
2018-06-15T18:51:59.981Z,2.83
2018-06-15T18:54:27.340Z,3.37
2018-06-15T18:56:54.565Z,3.33
2018-06-15T18:59:21.834Z,2.20
2018-06-15T19:01:49.113Z,2.30
2018-06-15T19:04:16.433Z,2.67
2018-06-15T19:06:43.724Z,2.87
2018-06-15T19:09:11.613Z,2.10
2018-06-15T19:11:38.965Z,2.00
2018-06-15T19:14:06.245Z,2.87
2018-06-15T19:16:33.557Z,3.43
2018-06-15T19:19:00.868Z,2.17
2018-06-15T19:21:28.308Z,2.33
2018-06-15T19:23:55.584Z,2.60
2018-06-15T19:26:22.907Z,2.67
2018-06-15T19:28:50.219Z,2.60
2018-06-15T19:31:17.489Z,3.70
2018-06-15T19:33:44.765Z,4.43
2018-06-15T19:36:12.040Z,3.73
2018-06-15T19:38:39.333Z,2.77
2018-06-15T19:41:06.637Z,2.47
2018-06-15T19:43:33.901Z,2.00
2018-06-15T19:46:01.175Z,2.23
2018-06-15T19:48:29.297Z,2.23
2018-06-15T19:50:56.564Z,2.37
2018-06-15T19:53:23.861Z,2.00
2018-06-15T19:55:51.172Z,2.00
2018-06-15T19:58:18.477Z,2.07
2018-06-15T20:00:45.748Z,2.00
2018-06-15T20:03:13.047Z,2.40
2018-06-15T20:05:40.327Z,2.50
2018-06-15T20:08:07.625Z,2.03
2018-06-15T20:10:35.048Z,1.67
2018-06-15T20:13:02.406Z,3.00
2018-06-15T20:15:29.681Z,2.83
2018-06-15T20:17:56.948Z,2.57
2018-06-15T20:20:24.222Z,2.50
2018-06-15T20:22:51.460Z,2.27
2018-06-15T20:25:18.740Z,2.10
2018-06-15T20:27:46.057Z,2.50
2018-06-15T20:30:13.317Z,4.97
2018-06-15T20:32:40.599Z,3.60
2018-06-15T20:35:07.866Z,2.33
2018-06-15T20:37:35.186Z,2.70
2018-06-15T20:40:02.497Z,2.10
2018-06-15T20:42:29.769Z,2.27
2018-06-15T20:44:57.069Z,2.53
2018-06-15T20:47:24.360Z,2.23
2018-06-15T20:49:51.660Z,2.40
2018-06-15T20:52:18.924Z,3.37
2018-06-15T20:54:46.198Z,2.30
2018-06-15T20:57:13.465Z,2.30
2018-06-15T20:59:40.760Z,2.00
2018-06-15T21:02:08.029Z,2.37
2018-06-15T21:04:35.304Z,2.00
2018-06-15T21:07:02.645Z,2.80
2018-06-15T21:09:29.937Z,2.40
2018-06-15T21:11:57.361Z,2.77
2018-06-15T21:14:24.641Z,3.33
2018-06-15T21:16:52.137Z,2.50
2018-06-15T21:19:19.417Z,2.57
2018-06-15T21:21:46.718Z,2.77
2018-06-15T21:24:14.000Z,2.20
2018-06-15T21:26:41.317Z,1.60
2018-06-15T21:29:08.593Z,2.10
2018-06-15T21:31:35.933Z,2.30
2018-06-15T21:34:03.247Z,1.93
2018-06-15T21:36:30.529Z,2.10
2018-06-15T21:38:57.808Z,1.90
2018-06-15T21:41:25.108Z,2.40
2018-06-15T21:43:52.892Z,1.80
2018-06-15T21:46:20.210Z,2.07
2018-06-15T21:48:47.517Z,2.00
2018-06-15T21:51:14.778Z,1.90
2018-06-15T21:53:42.104Z,3.07
2018-06-15T21:56:09.488Z,2.13
2018-06-15T21:58:36.768Z,2.40
2018-06-15T22:01:04.065Z,2.27
2018-06-15T22:03:31.367Z,2.60
2018-06-15T22:05:58.667Z,2.20
2018-06-15T22:08:25.949Z,1.80
2018-06-15T22:10:53.261Z,2.33
2018-06-15T22:13:20.721Z,3.40
2018-06-15T22:15:47.999Z,1.87
2018-06-15T22:18:15.255Z,2.40
2018-06-15T22:20:42.517Z,2.63
2018-06-15T22:23:09.771Z,2.03
2018-06-15T22:25:37.033Z,2.13
2018-06-15T22:28:04.329Z,1.77
2018-06-15T22:30:31.652Z,2.60
2018-06-15T22:32:58.957Z,2.40
2018-06-15T22:35:26.219Z,2.50
2018-06-15T22:37:53.489Z,1.90
2018-06-15T22:40:20.836Z,1.60
2018-06-15T22:42:48.108Z,2.60
2018-06-15T22:45:15.384Z,2.63
2018-06-15T22:47:42.649Z,2.23
2018-06-15T22:50:09.928Z,2.30
2018-06-15T22:52:37.229Z,1.70
2018-06-15T22:55:04.504Z,2.43
2018-06-15T22:57:31.825Z,2.43
2018-06-15T22:59:59.112Z,2.13
2018-06-15T23:02:26.386Z,1.90
2018-06-15T23:04:53.650Z,2.17
2018-06-15T23:07:20.916Z,1.97
2018-06-15T23:09:48.176Z,1.93
2018-06-15T23:12:15.489Z,2.07
2018-06-15T23:14:43.017Z,2.33
2018-06-15T23:17:10.279Z,1.93
2018-06-15T23:19:37.561Z,2.20
2018-06-15T23:22:04.874Z,1.60
2018-06-15T23:24:32.144Z,2.10
2018-06-15T23:26:59.429Z,1.93
2018-06-15T23:29:26.709Z,1.37
2018-06-15T23:31:54.018Z,2.80
2018-06-15T23:34:21.287Z,2.00
2018-06-15T23:36:48.552Z,1.90
2018-06-15T23:39:15.820Z,2.70
2018-06-15T23:41:43.095Z,1.97
2018-06-15T23:44:10.387Z,1.93
2018-06-15T23:46:37.684Z,2.13
2018-06-15T23:49:04.993Z,1.50
2018-06-15T23:51:32.335Z,1.80
2018-06-15T23:53:59.625Z,1.63
2018-06-15T23:56:26.888Z,3.00
2018-06-15T23:58:54.160Z,2.20
